Time;durP1;ratioP1;P1;durP2;ratioP2;P2;SDS_P1;SDS_P2;PMS_P1;PMS_P2;Temp;Humidity;BMP_temperature;BMP_pressure;BME280_temperature;BME280_humidity;BME280_pressure;Samples;Min_cycle;Max_cycle;Signal;HPM_P1;HPM_P2
2023/09/07 00:00:15;;;;;;;4.15;3.47;;;;;;;;;;5087944;28;20047;-59
2023/09/07 00:02:41;;;;;;;4.47;4.00;;;;;;;;;;5092678;28;20032;-60
2023/09/07 00:05:08;;;;;;;7.82;3.63;;;;;;;;;;5088664;28;20407;-59
2023/09/07 00:07:35;;;;;;;5.70;3.70;;;;;;;;;;5073230;28;20040;-59
2023/09/07 00:10:01;;;;;;;4.95;3.88;;;;;;;;;;5088883;28;20671;-60
2023/09/07 00:12:28;;;;;;;7.93;3.90;;;;;;;;;;5089988;28;20032;-60
2023/09/07 00:14:54;;;;;;;4.63;3.53;;;;;;;;;;5088684;28;20048;-59
2023/09/07 00:17:21;;;;;;;5.88;3.88;;;;;;;;;;5090263;28;20036;-59
2023/09/07 00:19:49;;;;;;;4.25;3.40;;;;;;;;;;5090447;28;20036;-59
2023/09/07 00:22:16;;;;;;;6.18;3.72;;;;;;;;;;5090871;28;20032;-59
2023/09/07 00:24:42;;;;;;;4.93;4.15;;;;;;;;;;5089992;28;20047;-59
2023/09/07 00:27:11;;;;;;;4.68;3.50;;;;;;;;;;5090628;28;20545;-59
2023/09/07 00:29:38;;;;;;;4.38;3.70;;;;;;;;;;5088844;28;20058;-59
2023/09/07 00:32:05;;;;;;;5.38;4.15;;;;;;;;;;5088250;28;20048;-60
2023/09/07 00:34:31;;;;;;;8.50;3.92;;;;;;;;;;5070839;28;20038;-60
2023/09/07 00:36:57;;;;;;;5.95;3.55;;;;;;;;;;5089505;28;20518;-59
2023/09/07 00:39:24;;;;;;;4.25;3.13;;;;;;;;;;5070209;28;20400;-61
2023/09/07 00:41:50;;;;;;;6.13;3.58;;;;;;;;;;5090247;28;20036;-59
2023/09/07 00:44:16;;;;;;;4.80;3.70;;;;;;;;;;5087454;28;20415;-60
2023/09/07 00:46:44;;;;;;;4.82;3.55;;;;;;;;;;5069175;28;20392;-60
2023/09/07 00:49:14;;;;;;;4.20;3.07;;;;;;;;;;5071002;28;20051;-60
2023/09/07 00:51:40;;;;;;;4.30;3.30;;;;;;;;;;5071831;28;20039;-59
2023/09/07 00:54:07;;;;;;;4.97;3.70;;;;;;;;;;5070903;28;20062;-59
2023/09/07 00:56:35;;;;;;;4.47;3.55;;;;;;;;;;5089882;28;20032;-60
2023/09/07 00:59:02;;;;;;;5.18;3.40;;;;;;;;;;5070808;28;20047;-60
2023/09/07 01:01:30;;;;;;;4.63;3.60;;;;;;;;;;5054447;28;20040;-61
2023/09/07 01:03:57;;;;;;;6.70;3.93;;;;;;;;;;5088546;28;20499;-59
2023/09/07 01:06:35;;;;;;;5.55;3.65;;;;;;;;;;5069267;28;20032;-59
2023/09/07 01:09:19;;;;;;;5.82;3.80;;;;;;;;;;5088910;28;20032;-60
2023/09/07 01:11:45;;;;;;;4.60;3.92;;;;;;;;;;5086609;28;20031;-60
2023/09/07 01:14:11;;;;;;;5.53;3.55;;;;;;;;;;5069801;28;20431;-60
2023/09/07 01:16:40;;;;;;;4.13;3.47;;;;;;;;;;5088401;28;20043;-60
2023/09/07 01:19:07;;;;;;;5.22;3.53;;;;;;;;;;5088386;28;20036;-58
2023/09/07 01:21:35;;;;;;;6.32;3.60;;;;;;;;;;5089204;28;20040;-59
2023/09/07 01:24:05;;;;;;;4.75;3.70;;;;;;;;;;5070881;28;20038;-58
2023/09/07 01:26:32;;;;;;;5.43;3.90;;;;;;;;;;5070110;28;20055;-61
2023/09/07 01:28:58;;;;;;;3.70;3.40;;;;;;;;;;5069185;28;20391;-60
2023/09/07 01:31:24;;;;;;;5.47;3.38;;;;;;;;;;5070571;28;20036;-60
2023/09/07 01:33:50;;;;;;;4.22;3.75;;;;;;;;;;5069061;28;20052;-60
2023/09/07 01:36:17;;;;;;;5.93;4.28;;;;;;;;;;5070649;28;20088;-59
2023/09/07 01:38:43;;;;;;;5.75;3.85;;;;;;;;;;5069452;28;20044;-60
2023/09/07 01:41:09;;;;;;;5.57;3.47;;;;;;;;;;5087901;28;20502;-59
2023/09/07 01:43:37;;;;;;;5.65;3.92;;;;;;;;;;5086487;28;20039;-60
2023/09/07 01:46:03;;;;;;;5.28;3.95;;;;;;;;;;5085762;28;20398;-60
2023/09/07 01:48:29;;;;;;;5.65;3.83;;;;;;;;;;5067891;28;20032;-59
2023/09/07 01:50:55;;;;;;;4.72;4.07;;;;;;;;;;5091424;28;20031;-59
2023/09/07 01:53:21;;;;;;;4.65;3.70;;;;;;;;;;5069430;28;20051;-59
2023/09/07 01:55:49;;;;;;;4.95;4.05;;;;;;;;;;5066567;28;20048;-58
2023/09/07 01:58:15;;;;;;;6.47;3.92;;;;;;;;;;5068709;28;20044;-60
2023/09/07 02:00:41;;;;;;;5.85;3.78;;;;;;;;;;5068858;28;20054;-60
2023/09/07 02:03:07;;;;;;;5.15;4.07;;;;;;;;;;5068507;28;20052;-59
2023/09/07 02:05:33;;;;;;;6.10;4.20;;;;;;;;;;5085432;28;20526;-60
2023/09/07 02:08:00;;;;;;;5.97;4.10;;;;;;;;;;5086702;28;20035;-60
2023/09/07 02:10:26;;;;;;;5.75;4.25;;;;;;;;;;5086501;28;20031;-59
2023/09/07 02:12:52;;;;;;;5.38;4.25;;;;;;;;;;5072675;28;20395;-60
2023/09/07 02:15:18;;;;;;;6.28;4.30;;;;;;;;;;5068897;28;20055;-60
2023/09/07 02:17:44;;;;;;;7.85;4.15;;;;;;;;;;5069113;28;20048;-60
2023/09/07 02:20:14;;;;;;;;;;;;;;;;;;5069447;28;20044;-60
2023/09/07 02:22:40;;;;;;;7.30;4.85;;;;;;;;;;5069424;28;20657;-60
2023/09/07 02:25:07;;;;;;;5.57;4.80;;;;;;;;;;5087522;28;20032;-60
2023/09/07 02:27:34;;;;;;;6.68;4.75;;;;;;;;;;5087303;28;20039;-60
2023/09/07 02:30:02;;;;;;;7.47;4.82;;;;;;;;;;5069223;28;20054;-60
2023/09/07 02:32:28;;;;;;;7.65;5.20;;;;;;;;;;5069852;28;20039;-60
2023/09/07 02:34:54;;;;;;;7.03;4.90;;;;;;;;;;5069109;28;20036;-60
2023/09/07 02:37:20;;;;;;;8.65;4.82;;;;;;;;;;5069607;28;20068;-59
2023/09/07 02:39:46;;;;;;;7.28;5.35;;;;;;;;;;5068011;28;20035;-60
2023/09/07 02:42:12;;;;;;;7.50;4.93;;;;;;;;;;5087504;28;20055;-60
2023/09/07 02:44:39;;;;;;;6.75;4.88;;;;;;;;;;5054393;28;20039;-60
2023/09/07 02:47:05;;;;;;;6.88;4.78;;;;;;;;;;5069558;28;20028;-60
2023/09/07 02:49:32;;;;;;;7.95;5.40;;;;;;;;;;5068378;28;20050;-60
2023/09/07 02:51:58;;;;;;;7.47;4.80;;;;;;;;;;5070415;28;20040;-60
2023/09/07 02:54:24;;;;;;;7.63;5.30;;;;;;;;;;5082598;28;20106;-59
2023/09/07 02:56:50;;;;;;;7.53;5.07;;;;;;;;;;5087291;28;20052;-60
2023/09/07 02:59:16;;;;;;;10.00;5.22;;;;;;;;;;5086871;28;20623;-60
2023/09/07 03:01:42;;;;;;;7.15;5.60;;;;;;;;;;5069613;28;20388;-60
2023/09/07 03:04:08;;;;;;;6.82;5.35;;;;;;;;;;5084881;28;20052;-61
2023/09/07 03:06:35;;;;;;;8.98;5.70;;;;;;;;;;5068783;28;20028;-60
2023/09/07 03:09:01;;;;;;;6.55;5.28;;;;;;;;;;5070142;28;20394;-60
2023/09/07 03:11:33;;;;;;;7.85;5.45;;;;;;;;;;5069299;28;20028;-60
2023/09/07 03:14:00;;;;;;;7.32;5.88;;;;;;;;;;5069235;28;20399;-59
2023/09/07 03:16:26;;;;;;;8.90;5.97;;;;;;;;;;5070184;28;20044;-60
2023/09/07 03:18:52;;;;;;;6.15;5.28;;;;;;;;;;5069715;28;20036;-60
2023/09/07 03:21:18;;;;;;;7.35;5.28;;;;;;;;;;5073427;28;20040;-60
2023/09/07 03:23:44;;;;;;;8.25;5.80;;;;;;;;;;5089376;28;20398;-59
2023/09/07 03:26:12;;;;;;;7.63;6.00;;;;;;;;;;5072655;28;20036;-59
2023/09/07 03:28:39;;;;;;;7.90;5.80;;;;;;;;;;5071198;28;20510;-60
2023/09/07 03:31:05;;;;;;;6.95;4.97;;;;;;;;;;5072309;28;20051;-59
2023/09/07 03:33:31;;;;;;;7.65;5.75;;;;;;;;;;5048189;28;20036;-60
2023/09/07 03:35:58;;;;;;;7.47;5.90;;;;;;;;;;5072203;28;20032;-60
2023/09/07 03:38:25;;;;;;;8.13;5.80;;;;;;;;;;5072950;28;20027;-60
2023/09/07 03:40:51;;;;;;;7.90;5.82;;;;;;;;;;5072447;28;20410;-60
2023/09/07 03:43:19;;;;;;;9.48;5.85;;;;;;;;;;5071954;28;20043;-58
2023/09/07 03:45:46;;;;;;;10.02;5.93;;;;;;;;;;5072287;28;20027;-58
2023/09/07 03:48:12;;;;;;;10.25;5.90;;;;;;;;;;5091166;28;20028;-59
2023/09/07 03:50:38;;;;;;;7.40;5.75;;;;;;;;;;5070575;28;20032;-58
2023/09/07 03:53:04;;;;;;;7.88;5.90;;;;;;;;;;5087188;28;20036;-58
2023/09/07 03:55:43;;;;;;;9.60;6.60;;;;;;;;;;5071967;28;20031;-58
2023/09/07 03:58:11;;;;;;;9.05;6.25;;;;;;;;;;5071641;28;20039;-59
2023/09/07 04:00:41;;;;;;;7.55;5.78;;;;;;;;;;5087053;28;20035;-59
2023/09/07 04:03:08;;;;;;;8.00;5.95;;;;;;;;;;5072193;28;20479;-59
2023/09/07 04:05:34;;;;;;;9.23;6.97;;;;;;;;;;5090063;28;20526;-59
2023/09/07 04:08:01;;;;;;;8.68;6.15;;;;;;;;;;5053936;28;20504;-59
2023/09/07 04:10:27;;;;;;;9.30;7.03;;;;;;;;;;5087226;28;20028;-59
2023/09/07 04:12:53;;;;;;;8.73;6.38;;;;;;;;;;5073337;28;20036;-59
2023/09/07 04:15:19;;;;;;;9.15;6.82;;;;;;;;;;5089539;28;20514;-59
2023/09/07 04:17:45;;;;;;;9.00;6.68;;;;;;;;;;5088928;28;20048;-59
2023/09/07 04:20:11;;;;;;;11.32;7.32;;;;;;;;;;5090045;28;20043;-60
2023/09/07 04:22:40;;;;;;;10.43;7.35;;;;;;;;;;5071015;28;20048;-59
2023/09/07 04:25:07;;;;;;;9.77;7.40;;;;;;;;;;5052800;28;20043;-59
2023/09/07 04:27:34;;;;;;;9.85;6.75;;;;;;;;;;5071445;28;20024;-59
2023/09/07 04:30:00;;;;;;;12.77;7.05;;;;;;;;;;5054511;28;20035;-59
2023/09/07 04:32:28;;;;;;;10.80;7.22;;;;;;;;;;5055521;28;20383;-59
2023/09/07 04:34:59;;;;;;;9.85;7.50;;;;;;;;;;5071384;28;20036;-60
2023/09/07 04:37:25;;;;;;;10.50;7.50;;;;;;;;;;5071201;28;20035;-59
2023/09/07 04:39:55;;;;;;;10.57;7.18;;;;;;;;;;5069340;28;20495;-59
2023/09/07 04:42:22;;;;;;;10.18;7.40;;;;;;;;;;5072113;28;20081;-60
2023/09/07 04:44:48;;;;;;;11.48;7.03;;;;;;;;;;5070598;28;20043;-59
2023/09/07 04:47:17;;;;;;;16.42;8.10;;;;;;;;;;5070629;28;20039;-59
2023/09/07 04:49:50;;;;;;;10.73;7.38;;;;;;;;;;5088025;28;20519;-59
2023/09/07 04:52:18;;;;;;;9.45;7.10;;;;;;;;;;5071945;28;20095;-60
2023/09/07 04:54:44;;;;;;;10.95;7.20;;;;;;;;;;5070170;28;21287;-59
2023/09/07 04:57:12;;;;;;;10.68;7.55;;;;;;;;;;5070999;28;20032;-59
2023/09/07 04:59:38;;;;;;;10.50;7.50;;;;;;;;;;5085354;28;20526;-60
2023/09/07 05:02:04;;;;;;;10.48;7.78;;;;;;;;;;5090173;28;20044;-60
2023/09/07 05:04:30;;;;;;;10.98;7.68;;;;;;;;;;5070421;28;20499;-59
2023/09/07 05:06:57;;;;;;;11.75;7.78;;;;;;;;;;5071623;28;20028;-59
2023/09/07 05:09:25;;;;;;;12.10;7.78;;;;;;;;;;5069974;28;20032;-59
2023/09/07 05:11:52;;;;;;;10.45;8.05;;;;;;;;;;5079954;28;20044;-60
2023/09/07 05:14:20;;;;;;;13.43;8.32;;;;;;;;;;5069410;28;20088;-60
2023/09/07 05:16:46;;;;;;;11.80;7.78;;;;;;;;;;5087638;28;20043;-60
2023/09/07 05:19:13;;;;;;;16.67;8.88;;;;;;;;;;5069843;28;20032;-60
2023/09/07 05:21:39;;;;;;;9.60;7.22;;;;;;;;;;5088723;28;20051;-59
2023/09/07 05:24:06;;;;;;;13.55;8.27;;;;;;;;;;5089215;28;20028;-59
2023/09/07 05:26:32;;;;;;;12.30;8.15;;;;;;;;;;5070385;28;20028;-59
2023/09/07 05:28:58;;;;;;;11.90;8.10;;;;;;;;;;5086930;28;20028;-58
2023/09/07 05:31:24;;;;;;;13.52;7.45;;;;;;;;;;5070320;28;20086;-58
2023/09/07 05:33:53;;;;;;;15.27;8.68;;;;;;;;;;5086221;28;20043;-58
2023/09/07 05:36:20;;;;;;;12.63;8.07;;;;;;;;;;5069263;28;20040;-59
2023/09/07 05:38:46;;;;;;;14.25;8.55;;;;;;;;;;5086161;28;20051;-59
2023/09/07 05:41:12;;;;;;;11.32;8.15;;;;;;;;;;5069550;28;20039;-59
2023/09/07 05:43:38;;;;;;;12.88;8.63;;;;;;;;;;5086068;28;20553;-59
2023/09/07 05:46:05;;;;;;;15.75;9.07;;;;;;;;;;5071587;28;20032;-59
2023/09/07 05:48:31;;;;;;;15.48;9.20;;;;;;;;;;5071806;28;20028;-59
2023/09/07 05:50:57;;;;;;;15.00;10.00;;;;;;;;;;5069437;28;20035;-59
2023/09/07 05:53:26;;;;;;;16.63;9.73;;;;;;;;;;5084956;28;20059;-59
2023/09/07 05:55:53;;;;;;;15.23;8.85;;;;;;;;;;5088313;28;20032;-59
2023/09/07 05:58:19;;;;;;;16.02;10.13;;;;;;;;;;5068260;28;20043;-59
2023/09/07 06:00:45;;;;;;;16.08;10.93;;;;;;;;;;5087363;28;20051;-59
2023/09/07 06:03:11;;;;;;;17.85;10.60;;;;;;;;;;5068060;28;20419;-59
2023/09/07 06:05:39;;;;;;;14.48;9.73;;;;;;;;;;5067697;28;20027;-59
2023/09/07 06:08:07;;;;;;;14.93;9.63;;;;;;;;;;5069528;28;20032;-59
2023/09/07 06:10:34;;;;;;;13.93;10.25;;;;;;;;;;5067833;28;20059;-59
2023/09/07 06:13:00;;;;;;;15.77;10.63;;;;;;;;;;5068898;28;20039;-59
2023/09/07 06:15:27;;;;;;;15.20;9.93;;;;;;;;;;5069950;28;20043;-59
2023/09/07 06:17:54;;;;;;;20.17;10.65;;;;;;;;;;5069573;28;20495;-59
2023/09/07 06:20:20;;;;;;;13.65;9.82;;;;;;;;;;5069283;28;20028;-59
2023/09/07 06:22:47;;;;;;;20.52;12.25;;;;;;;;;;5069707;28;20042;-59
2023/09/07 06:25:13;;;;;;;18.23;11.48;;;;;;;;;;5068902;28;20028;-59
2023/09/07 06:27:40;;;;;;;17.02;10.70;;;;;;;;;;5068897;28;20510;-59
2023/09/07 06:30:08;;;;;;;19.52;12.15;;;;;;;;;;5069659;28;20032;-58
2023/09/07 06:32:35;;;;;;;17.27;10.90;;;;;;;;;;5069796;28;20040;-59
2023/09/07 06:35:02;;;;;;;22.77;11.05;;;;;;;;;;5069069;28;20040;-59
2023/09/07 06:37:28;;;;;;;23.73;11.38;;;;;;;;;;5069578;28;20032;-59
2023/09/07 06:39:55;;;;;;;22.80;11.20;;;;;;;;;;5069300;28;20020;-59
2023/09/07 06:42:21;;;;;;;29.23;11.85;;;;;;;;;;5086905;28;20040;-59
2023/09/07 06:44:52;;;;;;;23.65;11.60;;;;;;;;;;5068235;28;20510;-59
2023/09/07 06:47:19;;;;;;;21.15;10.68;;;;;;;;;;5067405;28;20036;-58
2023/09/07 06:49:45;;;;;;;16.60;10.02;;;;;;;;;;5067332;28;20411;-59
2023/09/07 06:52:11;;;;;;;16.52;9.40;;;;;;;;;;5069427;28;20601;-59
2023/09/07 06:54:38;;;;;;;13.23;9.38;;;;;;;;;;5067405;28;20044;-59
2023/09/07 06:57:08;;;;;;;16.48;9.52;;;;;;;;;;5068863;28;20553;-59
2023/09/07 06:59:35;;;;;;;;;;;;;;;;;;5050648;28;20063;-59
2023/09/07 07:02:04;;;;;;;16.02;9.65;;;;;;;;;;5069133;28;20463;-59
2023/09/07 07:04:30;;;;;;;15.23;9.40;;;;;;;;;;5067489;28;20036;-59
2023/09/07 07:06:56;;;;;;;14.65;9.30;;;;;;;;;;5087361;28;20024;-59
2023/09/07 07:09:23;;;;;;;14.50;9.48;;;;;;;;;;5068597;28;20473;-58
2023/09/07 07:11:49;;;;;;;19.10;10.25;;;;;;;;;;5086005;28;20561;-60
2023/09/07 07:14:15;;;;;;;17.38;9.00;;;;;;;;;;5085234;28;20039;-60
2023/09/07 07:16:42;;;;;;;16.10;9.45;;;;;;;;;;5068995;28;20036;-60
2023/09/07 07:19:08;;;;;;;16.30;10.27;;;;;;;;;;5068330;28;20032;-60
2023/09/07 07:21:34;;;;;;;14.82;9.95;;;;;;;;;;5085648;28;20036;-61
2023/09/07 07:24:01;;;;;;;15.25;10.02;;;;;;;;;;5067695;28;20518;-60
2023/09/07 07:26:27;;;;;;;15.57;10.13;;;;;;;;;;5069381;28;20039;-60
2023/09/07 07:28:54;;;;;;;18.35;9.95;;;;;;;;;;5065734;28;20565;-60
2023/09/07 07:31:20;;;;;;;16.70;9.90;;;;;;;;;;5067604;28;20052;-61
2023/09/07 07:33:48;;;;;;;14.27;9.75;;;;;;;;;;5067862;28;20402;-62
2023/09/07 07:36:14;;;;;;;15.90;9.95;;;;;;;;;;5067590;28;20039;-60
2023/09/07 07:38:40;;;;;;;18.02;10.20;;;;;;;;;;5065332;28;20039;-60
2023/09/07 07:41:07;;;;;;;15.00;10.23;;;;;;;;;;5067524;28;20040;-59
2023/09/07 07:43:34;;;;;;;17.70;9.50;;;;;;;;;;5065226;28;20036;-60
2023/09/07 07:46:00;;;;;;;15.90;9.73;;;;;;;;;;5068057;28;20039;-60
2023/09/07 07:48:29;;;;;;;18.83;9.70;;;;;;;;;;5069815;28;20644;-60
2023/09/07 07:50:55;;;;;;;17.02;10.40;;;;;;;;;;5067706;28;20043;-60
2023/09/07 07:53:21;;;;;;;16.42;10.27;;;;;;;;;;5066102;28;20043;-60
2023/09/07 07:55:48;;;;;;;22.95;11.05;;;;;;;;;;5067758;28;20040;-60
2023/09/07 07:58:17;;;;;;;18.20;11.60;;;;;;;;;;5065228;28;20044;-60
2023/09/07 08:00:47;;;;;;;19.38;10.70;;;;;;;;;;5067391;28;20031;-60
2023/09/07 08:03:16;;;;;;;16.23;10.25;;;;;;;;;;5053608;28;20496;-59
2023/09/07 08:05:43;;;;;;;19.38;10.25;;;;;;;;;;5055691;28;20676;-59
2023/09/07 08:08:11;;;;;;;15.82;10.35;;;;;;;;;;5071867;28;20040;-60
2023/09/07 08:10:40;;;;;;;17.30;10.60;;;;;;;;;;5071576;28;20419;-60
2023/09/07 08:13:06;;;;;;;19.75;10.70;;;;;;;;;;5071305;28;20028;-60
2023/09/07 08:15:33;;;;;;;19.25;10.93;;;;;;;;;;5071979;28;20036;-60
2023/09/07 08:18:00;;;;;;;15.63;10.77;;;;;;;;;;5072232;28;20032;-60
2023/09/07 08:20:27;;;;;;;19.90;11.15;;;;;;;;;;5071957;28;20039;-59
2023/09/07 08:22:54;;;;;;;16.42;10.43;;;;;;;;;;5069854;28;20434;-59
2023/09/07 08:25:20;;;;;;;20.65;10.18;;;;;;;;;;5071962;28;20060;-60
2023/09/07 08:27:47;;;;;;;15.18;10.15;;;;;;;;;;5071304;28;20044;-60
2023/09/07 08:30:16;;;;;;;20.67;10.00;;;;;;;;;;5055372;28;20031;-59
2023/09/07 08:32:44;;;;;;;14.48;10.40;;;;;;;;;;5084846;28;20032;-60
2023/09/07 08:35:13;;;;;;;11.13;8.70;;;;;;;;;;5089264;28;20047;-60
2023/09/07 08:37:39;;;;;;;15.60;9.98;;;;;;;;;;5089716;28;20036;-60
2023/09/07 08:40:11;;;;;;;17.50;10.60;;;;;;;;;;5070977;28;20036;-59
2023/09/07 08:42:38;;;;;;;16.80;10.35;;;;;;;;;;5088615;28;20082;-59
2023/09/07 08:45:07;;;;;;;16.98;10.70;;;;;;;;;;5087882;28;20729;-60
2023/09/07 08:47:35;;;;;;;17.25;10.52;;;;;;;;;;5053522;28;20032;-60
2023/09/07 08:50:02;;;;;;;17.55;10.82;;;;;;;;;;5089137;28;20031;-60
2023/09/07 08:52:29;;;;;;;15.50;9.82;;;;;;;;;;5089797;28;20032;-60
2023/09/07 08:54:58;;;;;;;15.55;10.40;;;;;;;;;;5088379;28;20062;-60
2023/09/07 08:57:25;;;;;;;16.75;10.27;;;;;;;;;;5082631;28;20044;-60
2023/09/07 08:59:51;;;;;;;14.82;9.15;;;;;;;;;;5086998;28;20044;-59
2023/09/07 09:02:17;;;;;;;15.68;9.82;;;;;;;;;;5088164;28;20035;-60
2023/09/07 09:04:43;;;;;;;14.57;10.10;;;;;;;;;;5085213;28;20110;-60
2023/09/07 09:07:09;;;;;;;16.98;9.55;;;;;;;;;;5087872;28;20036;-60
2023/09/07 09:09:35;;;;;;;13.57;9.93;;;;;;;;;;5069568;28;20047;-60
2023/09/07 09:12:12;;;;;;;13.68;9.30;;;;;;;;;;5088081;28;20040;-60
2023/09/07 09:14:43;;;;;;;15.70;10.00;;;;;;;;;;5083180;28;20040;-60
2023/09/07 09:17:13;;;;;;;15.38;9.10;;;;;;;;;;5087311;28;20043;-60
2023/09/07 09:19:41;;;;;;;15.15;9.95;;;;;;;;;;5085960;28;20075;-60
2023/09/07 09:22:07;;;;;;;12.07;9.02;;;;;;;;;;5070494;28;20036;-60
2023/09/07 09:24:34;;;;;;;16.60;9.40;;;;;;;;;;5083667;28;20040;-60
2023/09/07 09:27:01;;;;;;;10.60;8.70;;;;;;;;;;5089229;28;20024;-61
2023/09/07 09:29:27;;;;;;;10.98;8.60;;;;;;;;;;5085904;28;20040;-60
2023/09/07 09:31:54;;;;;;;14.40;8.80;;;;;;;;;;5069440;28;20035;-60
2023/09/07 09:34:20;;;;;;;10.45;8.82;;;;;;;;;;5086403;28;20044;-60
2023/09/07 09:36:47;;;;;;;11.07;8.80;;;;;;;;;;5069053;28;20059;-61
2023/09/07 09:39:23;;;;;;;10.68;8.45;;;;;;;;;;5085832;28;20051;-60
2023/09/07 09:41:50;;;;;;;11.63;8.65;;;;;;;;;;5086998;28;20039;-60
2023/09/07 09:44:16;;;;;;;11.82;8.90;;;;;;;;;;5086938;28;20039;-60
2023/09/07 09:46:43;;;;;;;12.13;8.73;;;;;;;;;;5068760;28;20506;-60
2023/09/07 09:49:11;;;;;;;10.73;9.13;;;;;;;;;;5085573;28;20265;-60
2023/09/07 09:51:39;;;;;;;14.35;8.77;;;;;;;;;;5086224;28;20039;-61
2023/09/07 09:54:06;;;;;;;11.20;9.18;;;;;;;;;;5086594;28;20028;-61
2023/09/07 09:56:32;;;;;;;10.27;8.02;;;;;;;;;;5087017;28;20035;-60
2023/09/07 09:58:58;;;;;;;12.52;8.10;;;;;;;;;;5085353;28;20043;-60
2023/09/07 10:01:24;;;;;;;12.90;8.35;;;;;;;;;;5087171;28;20023;-61
2023/09/07 10:03:54;;;;;;;12.68;8.05;;;;;;;;;;5066294;28;20040;-60
2023/09/07 10:06:29;;;;;;;12.82;7.90;;;;;;;;;;5087453;28;20040;-60
2023/09/07 10:09:10;;;;;;;9.85;8.55;;;;;;;;;;5084739;28;20530;-60
2023/09/07 10:11:38;;;;;;;9.88;7.75;;;;;;;;;;5081751;28;20511;-60
2023/09/07 10:14:06;;;;;;;12.35;7.80;;;;;;;;;;5084694;28;20028;-59
2023/09/07 10:16:46;;;;;;;12.43;7.32;;;;;;;;;;5087394;28;20031;-59
2023/09/07 10:19:20;;;;;;;13.10;8.13;;;;;;;;;;5086202;28;20055;-59
2023/09/07 10:21:47;;;;;;;11.98;7.72;;;;;;;;;;5085155;28;20487;-59
2023/09/07 10:24:35;;;;;;;10.32;7.65;;;;;;;;;;5067424;28;20153;-60
2023/09/07 10:27:04;;;;;;;;;;;;;;;;;;5086251;28;20039;-59
2023/09/07 10:29:40;;;;;;;10.75;7.72;;;;;;;;;;5084295;28;19920;-59
2023/09/07 10:32:08;;;;;;;15.57;7.88;;;;;;;;;;5083441;28;20032;-60
2023/09/07 10:34:39;;;;;;;11.17;7.13;;;;;;;;;;5084612;28;20032;-60
2023/09/07 10:37:07;;;;;;;8.90;7.50;;;;;;;;;;5084509;28;20039;-59
2023/09/07 10:39:33;;;;;;;10.30;7.68;;;;;;;;;;5064874;28;20039;-60
2023/09/07 10:41:59;;;;;;;12.38;7.90;;;;;;;;;;5085579;28;20032;-60
2023/09/07 10:44:26;;;;;;;8.90;6.78;;;;;;;;;;5084949;28;20043;-60
2023/09/07 10:46:52;;;;;;;15.13;7.47;;;;;;;;;;5082398;28;20040;-60
2023/09/07 10:49:19;;;;;;;10.18;7.88;;;;;;;;;;5077632;28;20032;-60
2023/09/07 10:51:46;;;;;;;9.63;7.60;;;;;;;;;;5085899;28;20036;-60
2023/09/07 10:54:16;;;;;;;9.80;7.82;;;;;;;;;;5083881;28;20051;-60
2023/09/07 10:56:44;;;;;;;14.65;7.50;;;;;;;;;;5086102;28;20051;-60
2023/09/07 10:59:10;;;;;;;10.25;7.75;;;;;;;;;;5085887;28;20410;-61
2023/09/07 11:01:36;;;;;;;15.25;8.27;;;;;;;;;;5086318;28;20475;-60
2023/09/07 11:04:04;;;;;;;8.88;7.43;;;;;;;;;;5085762;28;20024;-61
2023/09/07 11:06:30;;;;;;;9.25;7.30;;;;;;;;;;5086973;28;20059;-60
2023/09/07 11:09:00;;;;;;;8.52;7.40;;;;;;;;;;5064167;28;20028;-60
2023/09/07 11:11:27;;;;;;;11.27;7.07;;;;;;;;;;5087042;28;20046;-60
2023/09/07 11:13:53;;;;;;;13.43;7.68;;;;;;;;;;5067970;28;20417;-61
2023/09/07 11:16:19;;;;;;;8.98;7.13;;;;;;;;;;5086389;28;20044;-61
2023/09/07 11:18:46;;;;;;;11.27;7.53;;;;;;;;;;5069162;28;20047;-61
2023/09/07 11:21:12;;;;;;;15.82;7.68;;;;;;;;;;5086602;28;20031;-61
2023/09/07 11:23:38;;;;;;;9.80;6.97;;;;;;;;;;5085590;28;20483;-61
2023/09/07 11:26:05;;;;;;;10.82;7.90;;;;;;;;;;5085201;28;20039;-60
2023/09/07 11:28:31;;;;;;;7.53;6.82;;;;;;;;;;5085866;28;20044;-61
2023/09/07 11:30:58;;;;;;;9.15;7.53;;;;;;;;;;5085139;28;20036;-61
2023/09/07 11:33:25;;;;;;;9.48;7.03;;;;;;;;;;5085740;28;20491;-61
2023/09/07 11:35:54;;;;;;;8.27;6.95;;;;;;;;;;5086843;28;20036;-61
2023/09/07 11:38:20;;;;;;;8.38;7.28;;;;;;;;;;5088168;28;20036;-61
2023/09/07 11:40:46;;;;;;;7.55;6.85;;;;;;;;;;5086935;28;20039;-61
2023/09/07 11:43:18;;;;;;;10.55;7.25;;;;;;;;;;5089026;28;20044;-62
2023/09/07 11:45:46;;;;;;;8.32;6.85;;;;;;;;;;5090056;28;20411;-61
2023/09/07 11:48:12;;;;;;;10.25;7.03;;;;;;;;;;5089524;28;20027;-61
2023/09/07 11:50:40;;;;;;;7.32;6.32;;;;;;;;;;5086924;28;20051;-61
2023/09/07 11:53:07;;;;;;;7.15;6.45;;;;;;;;;;5067756;28;20075;-61
2023/09/07 11:55:33;;;;;;;7.75;7.05;;;;;;;;;;5070208;28;20056;-62
2023/09/07 11:58:06;;;;;;;7.68;6.88;;;;;;;;;;5088196;28;20043;-61
2023/09/07 12:00:32;;;;;;;7.25;6.03;;;;;;;;;;5069771;28;20042;-61
2023/09/07 12:02:58;;;;;;;8.52;6.97;;;;;;;;;;5086811;28;20079;-62
2023/09/07 12:05:24;;;;;;;7.22;6.53;;;;;;;;;;5055664;28;20056;-61
2023/09/07 12:07:51;;;;;;;7.85;6.57;;;;;;;;;;5088821;28;20036;-62
2023/09/07 12:10:17;;;;;;;7.88;6.47;;;;;;;;;;5089830;28;20482;-61
2023/09/07 12:12:43;;;;;;;6.90;5.63;;;;;;;;;;5089810;28;20044;-62
2023/09/07 12:15:13;;;;;;;7.00;6.30;;;;;;;;;;5089741;28;20036;-61
2023/09/07 12:17:40;;;;;;;8.60;5.85;;;;;;;;;;5088087;28;20047;-61
2023/09/07 12:20:10;;;;;;;7.93;5.90;;;;;;;;;;5088517;28;20028;-60
2023/09/07 12:22:37;;;;;;;9.93;6.07;;;;;;;;;;5088887;28;20046;-61
2023/09/07 12:25:07;;;;;;;7.93;5.60;;;;;;;;;;5087914;28;20040;-60
2023/09/07 12:27:34;;;;;;;7.82;5.93;;;;;;;;;;5089477;28;20043;-60
2023/09/07 12:30:02;;;;;;;6.32;5.70;;;;;;;;;;5088681;28;20040;-61
2023/09/07 12:32:28;;;;;;;8.32;5.80;;;;;;;;;;5088265;28;20123;-61
2023/09/07 12:34:54;;;;;;;8.18;6.45;;;;;;;;;;5088170;28;20517;-61
2023/09/07 12:37:23;;;;;;;6.65;5.95;;;;;;;;;;5071514;28;20050;-61
2023/09/07 12:39:49;;;;;;;8.30;6.63;;;;;;;;;;5069557;28;20062;-61
2023/09/07 12:42:17;;;;;;;6.25;5.60;;;;;;;;;;5089450;28;20032;-61
2023/09/07 12:44:44;;;;;;;6.07;5.57;;;;;;;;;;5087758;28;20047;-62
2023/09/07 12:47:10;;;;;;;5.25;4.78;;;;;;;;;;5089119;28;20407;-61
2023/09/07 12:49:36;;;;;;;8.15;5.75;;;;;;;;;;5088783;28;20024;-62
2023/09/07 12:52:08;;;;;;;8.82;4.93;;;;;;;;;;5089308;28;20032;-61
2023/09/07 12:54:36;;;;;;;6.30;5.68;;;;;;;;;;5087568;28;20055;-61
2023/09/07 12:57:03;;;;;;;8.23;5.72;;;;;;;;;;5087611;28;20048;-61
2023/09/07 12:59:29;;;;;;;6.97;5.15;;;;;;;;;;5088450;28;20035;-61
2023/09/07 13:01:55;;;;;;;5.68;5.18;;;;;;;;;;5068964;28;20029;-61
2023/09/07 13:04:22;;;;;;;6.13;5.45;;;;;;;;;;5088533;28;20039;-61
2023/09/07 13:06:48;;;;;;;8.40;4.95;;;;;;;;;;5089290;28;20054;-61
2023/09/07 13:09:14;;;;;;;6.88;5.45;;;;;;;;;;5089341;28;20044;-61
2023/09/07 13:11:40;;;;;;;7.80;5.57;;;;;;;;;;5088770;28;20052;-61
2023/09/07 13:14:08;;;;;;;7.35;5.28;;;;;;;;;;5070585;28;20031;-60
2023/09/07 13:16:34;;;;;;;5.68;5.18;;;;;;;;;;5089719;28;20118;-61
2023/09/07 13:19:00;;;;;;;6.10;5.50;;;;;;;;;;5069954;28;20056;-61
2023/09/07 13:21:26;;;;;;;5.78;5.18;;;;;;;;;;5089272;28;20079;-61
2023/09/07 13:23:53;;;;;;;6.97;5.32;;;;;;;;;;5070282;28;20039;-61
2023/09/07 13:26:19;;;;;;;8.55;5.22;;;;;;;;;;5089814;28;20505;-61
2023/09/07 13:28:45;;;;;;;6.75;4.90;;;;;;;;;;5089140;28;20036;-62
2023/09/07 13:31:11;;;;;;;5.72;4.60;;;;;;;;;;5088927;28;20024;-62
2023/09/07 13:33:37;;;;;;;5.50;4.72;;;;;;;;;;5087778;28;20028;-61
2023/09/07 13:36:03;;;;;;;6.53;4.80;;;;;;;;;;5069209;28;20028;-62
2023/09/07 13:38:30;;;;;;;6.35;4.53;;;;;;;;;;5087431;28;20527;-62
2023/09/07 13:40:56;;;;;;;6.78;4.93;;;;;;;;;;5086689;28;20044;-62
2023/09/07 13:43:22;;;;;;;8.63;5.20;;;;;;;;;;5068490;28;20040;-62
2023/09/07 13:45:48;;;;;;;6.20;5.18;;;;;;;;;;5069188;28;20051;-62
2023/09/07 13:48:14;;;;;;;5.82;4.38;;;;;;;;;;5088006;28;20028;-62
2023/09/07 13:50:40;;;;;;;8.73;4.78;;;;;;;;;;5087248;28;20043;-62
2023/09/07 13:53:06;;;;;;;6.85;4.53;;;;;;;;;;5086117;28;20051;-63
2023/09/07 13:55:32;;;;;;;6.38;4.97;;;;;;;;;;5068958;28;20052;-62
2023/09/07 13:57:58;;;;;;;6.95;4.68;;;;;;;;;;5086930;28;20032;-62
2023/09/07 14:00:24;;;;;;;4.80;4.05;;;;;;;;;;5086118;28;20051;-62
2023/09/07 14:02:50;;;;;;;6.70;4.50;;;;;;;;;;5086367;28;20036;-62
2023/09/07 14:05:16;;;;;;;6.15;4.65;;;;;;;;;;5068628;28;20036;-62
2023/09/07 14:07:42;;;;;;;5.47;4.55;;;;;;;;;;5086676;28;20515;-62
2023/09/07 14:10:09;;;;;;;6.78;4.68;;;;;;;;;;5067677;28;20051;-62
2023/09/07 14:12:35;;;;;;;6.30;4.18;;;;;;;;;;5085687;28;20044;-62
2023/09/07 14:15:01;;;;;;;7.90;4.60;;;;;;;;;;5067583;28;20044;-62
2023/09/07 14:17:27;;;;;;;7.13;4.65;;;;;;;;;;5085189;28;20035;-62
2023/09/07 14:19:53;;;;;;;6.45;4.53;;;;;;;;;;5085232;28;20043;-62
2023/09/07 14:22:19;;;;;;;6.25;4.22;;;;;;;;;;5088270;28;20028;-62
2023/09/07 14:24:45;;;;;;;5.63;4.95;;;;;;;;;;5086672;28;20059;-61
2023/09/07 14:27:11;;;;;;;8.77;4.50;;;;;;;;;;5087451;28;20043;-62
2023/09/07 14:29:38;;;;;;;7.13;4.32;;;;;;;;;;5086594;28;20048;-62
2023/09/07 14:32:05;;;;;;;5.50;4.85;;;;;;;;;;5086767;28;20043;-62
2023/09/07 14:34:31;;;;;;;6.60;4.50;;;;;;;;;;5086869;28;20055;-62